.
WxDataArchive / Data Records for 2014-02-10
2014-02-09 February 2014 2014-02-11

Data Records for Monday, 10 February 2014

Time	Temp	Chill	HIndex	Humid	Dewpt	 Wind 	HiWind	WindDir	Rain 	Barom 
-----	----	-----	------	-----	-----	------	------	-------	-----	----- 
00:00	9.7	9.7	9.7	77	4.0	0	1	248	0.00	30.267 
00:05	9.5	9.5	9.5	77	3.8	0	1	248	0.00	30.267 
00:10	9.3	9.3	9.3	77	3.6	0	1	248	0.00	30.267 
00:15	9.2	9.2	9.2	77	3.5	0	1	248	0.00	30.267 
00:20	8.8	8.8	8.8	78	3.4	0	0	---	0.00	30.267 
00:25	8.6	8.6	8.6	78	3.2	0	1	248	0.00	30.267 
00:30	8.4	8.4	8.4	78	3.0	0	1	248	0.00	30.269 
00:35	8.1	8.1	8.1	78	2.7	0	0	---	0.00	30.269 
00:40	7.9	7.9	7.9	78	2.5	0	0	---	0.00	30.269 
00:45	7.7	7.7	7.7	78	2.3	0	1	248	0.00	30.268 
00:50	7.7	7.7	7.7	79	2.6	0	1	248	0.00	30.268 
00:55	7.7	7.7	7.7	79	2.6	0	2	248	0.00	30.268 
01:00	7.7	7.7	7.7	79	2.6	0	1	248	0.00	30.266 
01:05	7.7	7.7	7.7	79	2.6	0	2	248	0.00	30.266 
01:10	7.6	7.6	7.6	79	2.5	0	2	248	0.00	30.266 
01:15	7.4	7.4	7.4	79	2.3	0	2	248	0.00	30.265 
01:20	7.4	7.4	7.4	79	2.3	0	2	248	0.00	30.265 
01:25	7.2	7.2	7.2	79	2.1	0	1	248	0.00	30.265 
01:30	7.0	7.0	7.0	79	1.9	0	0	---	0.00	30.266 
01:35	6.9	6.9	6.9	79	1.8	0	1	248	0.00	30.266 
01:40	6.7	6.7	6.7	79	1.6	0	1	248	0.00	30.266 
01:45	6.7	6.7	6.7	79	1.6	0	1	248	0.00	30.266 
01:50	6.7	6.7	6.7	79	1.6	0	1	248	0.00	30.266 
01:55	6.5	6.5	6.5	79	1.4	0	1	248	0.00	30.266 
02:00	6.3	6.3	6.3	79	1.2	0	1	248	0.00	30.268 
02:05	6.1	6.1	6.1	79	1.0	0	1	248	0.00	30.268 
02:10	6.0	6.0	6.0	79	0.9	0	1	248	0.00	30.268 
02:15	5.8	5.8	5.8	79	0.7	0	1	248	0.00	30.272 
02:20	5.8	5.8	5.8	79	0.7	0	1	248	0.00	30.272 
02:25	5.8	5.8	5.8	79	0.7	0	0	---	0.00	30.272 
02:30	5.8	5.8	5.8	80	1.0	0	1	248	0.00	30.281 
02:35	5.6	5.6	5.6	80	0.8	0	1	248	0.00	30.281 
02:40	5.4	5.4	5.4	80	0.6	0	1	248	0.00	30.281 
02:45	5.4	5.4	5.4	80	0.6	0	1	248	0.00	30.281 
02:50	5.2	5.2	5.2	80	0.4	0	1	248	0.00	30.281 
02:55	5.0	5.0	5.0	80	0.2	0	1	248	0.00	30.281 
03:00	4.8	4.8	4.8	80	0.0	0	1	248	0.00	30.282 
03:05	4.8	4.8	4.8	80	0.0	0	1	248	0.00	30.282 
03:10	4.8	4.8	4.8	80	0.0	0	1	248	0.00	30.282 
03:15	4.7	4.7	4.7	80	-0.1	0	1	248	0.00	30.284 
03:20	4.7	4.7	4.7	80	-0.1	0	1	248	0.00	30.284 
03:25	4.3	4.3	4.3	80	-0.5	0	0	---	0.00	30.284 
03:30	4.1	4.1	4.1	80	-0.7	0	0	---	0.00	30.285 
03:35	3.7	3.7	3.7	80	-1.1	0	0	---	0.00	30.285 
03:40	3.5	3.5	3.5	80	-1.3	0	0	---	0.00	30.285 
03:45	3.4	3.4	3.4	80	-1.4	0	0	---	0.00	30.286 
03:50	3.2	3.2	3.2	80	-1.6	0	0	---	0.00	30.286 
03:55	3.0	3.0	3.0	80	-1.7	0	0	---	0.00	30.286 
04:00	3.0	3.0	3.0	80	-1.7	0	0	---	0.00	30.286 
04:05	3.0	3.0	3.0	81	-1.5	0	0	---	0.00	30.286 
04:10	2.8	2.8	2.8	81	-1.7	0	0	---	0.00	30.286 
04:15	3.0	3.0	3.0	81	-1.5	0	0	---	0.00	30.288 
04:20	3.2	3.2	3.2	81	-1.3	0	1	248	0.00	30.288 
04:25	3.2	3.2	3.2	81	-1.3	0	0	---	0.00	30.288 
04:30	3.0	3.0	3.0	81	-1.5	0	1	248	0.00	30.289 
04:35	2.8	2.8	2.8	81	-1.7	0	0	---	0.00	30.289 
04:40	2.8	2.8	2.8	81	-1.7	0	0	---	0.00	30.289 
04:45	2.4	2.4	2.4	81	-2.1	0	0	---	0.00	30.290 
04:50	2.2	2.2	2.2	81	-2.3	0	0	---	0.00	30.290 
04:55	2.0	2.0	2.0	80	-2.7	0	0	---	0.00	30.290 
05:00	1.8	1.8	1.8	81	-2.7	0	0	---	0.00	30.294 
05:05	1.8	1.8	1.8	81	-2.7	0	0	---	0.00	30.294 
05:10	1.8	1.8	1.8	81	-2.7	0	0	---	0.00	30.294 
05:15	1.8	1.8	1.8	81	-2.7	0	1	248	0.00	30.300 
05:20	1.8	1.8	1.8	81	-2.7	0	0	---	0.00	30.300 
05:25	1.7	1.7	1.7	81	-2.8	0	0	---	0.00	30.300 
05:30	1.5	1.5	1.5	81	-3.0	0	0	---	0.00	30.301 
05:35	1.5	1.5	1.5	81	-3.0	0	0	---	0.00	30.301 
05:40	1.7	1.7	1.7	81	-2.8	0	1	248	0.00	30.301 
05:45	1.7	1.7	1.7	81	-2.8	0	1	248	0.00	30.305 
05:50	1.7	1.7	1.7	81	-2.8	0	0	---	0.00	30.305 
05:55	1.8	1.8	1.8	81	-2.7	0	1	248	0.00	30.305 
06:00	1.8	1.8	1.8	81	-2.7	0	1	248	0.00	30.306 
06:05	1.8	1.8	1.8	81	-2.7	0	1	248	0.00	30.306 
06:10	1.8	1.8	1.8	81	-2.7	0	1	248	0.00	30.306 
06:15	2.0	2.0	2.0	81	-2.5	0	1	248	0.00	30.319 
06:20	2.0	2.0	2.0	81	-2.5	0	1	248	0.00	30.319 
06:25	2.0	2.0	2.0	81	-2.5	0	1	248	0.00	30.319 
06:30	1.8	1.8	1.8	81	-2.7	0	1	248	0.00	30.321 
06:35	1.8	1.8	1.8	81	-2.7	0	1	248	0.00	30.321 
06:40	1.7	1.7	1.7	81	-2.8	0	0	---	0.00	30.321 
06:45	1.7	1.7	1.7	81	-2.8	0	1	248	0.00	30.324 
06:50	1.5	1.5	1.5	81	-3.0	0	0	---	0.00	30.324 
06:55	1.5	1.5	1.5	81	-3.0	0	1	248	0.00	30.324 
07:00	1.5	1.5	1.5	81	-3.0	0	0	---	0.00	30.326 
07:05	1.5	1.5	1.5	81	-3.0	0	1	248	0.00	30.326 
07:10	1.5	1.5	1.5	81	-3.0	0	1	248	0.00	30.326 
07:15	1.5	1.5	1.5	81	-3.0	0	1	248	0.00	30.332 
07:20	1.5	1.5	1.5	81	-3.0	0	1	248	0.00	30.332 
07:25	1.5	1.5	1.5	81	-3.0	0	1	248	0.00	30.332 
07:30	1.5	1.5	1.5	81	-3.0	0	1	248	0.00	30.334 
07:35	1.3	1.3	1.3	80	-3.4	0	0	---	0.00	30.334 
07:40	1.3	1.3	1.3	80	-3.4	0	1	248	0.00	30.334 
07:45	1.3	1.3	1.3	80	-3.4	0	0	---	0.00	30.337 
07:50	1.3	1.3	1.3	80	-3.4	0	1	248	0.00	30.337 
07:55	1.3	1.3	1.3	80	-3.4	0	1	248	0.00	30.337 
08:00	1.3	1.3	1.3	80	-3.4	0	0	---	0.00	30.340 
08:05	1.1	1.1	1.1	80	-3.6	0	0	---	0.00	30.340 
08:10	0.9	0.9	0.9	80	-3.8	0	0	---	0.00	30.340 
08:15	0.9	0.9	0.9	80	-3.8	0	0	---	0.00	30.358 
08:20	0.7	0.7	0.7	80	-4.0	0	0	---	0.00	30.358 
08:25	0.9	0.9	0.9	80	-3.8	0	0	---	0.00	30.358 
08:30	0.9	0.9	0.9	80	-3.8	0	0	---	0.00	30.371 
08:35	1.1	1.1	1.1	80	-3.6	0	0	---	0.00	30.371 
08:40	1.3	1.3	1.3	80	-3.4	0	0	---	0.00	30.371 
08:45	1.7	1.7	1.7	80	-3.0	0	1	248	0.00	30.366 
08:50	2.0	2.0	2.0	81	-2.5	0	1	248	0.00	30.366 
08:55	2.4	2.4	2.4	81	-2.1	0	1	248	0.00	30.366 
09:00	3.0	3.0	3.0	81	-1.5	0	2	248	0.00	30.372 
09:05	3.4	3.4	3.4	81	-1.1	0	1	248	0.00	30.372 
09:10	3.7	3.7	3.7	81	-0.8	0	1	248	0.00	30.372 
09:15	4.1	4.1	4.1	81	-0.4	0	1	248	0.00	30.372 
09:20	4.7	4.7	4.7	81	0.2	0	1	248	0.00	30.372 
09:25	5.0	5.0	5.0	81	0.5	0	1	248	0.00	30.372 
09:30	5.6	5.6	5.6	81	1.1	0	2	248	0.00	30.368 
09:35	6.1	6.1	6.1	80	1.3	0	2	248	0.00	30.368 
09:40	6.5	6.5	6.5	80	1.7	1	4	248	0.00	30.368 
09:45	7.0	7.0	7.0	80	2.2	1	3	315	0.00	30.368 
09:50	7.6	7.6	7.6	79	2.5	0	3	315	0.00	30.368 
09:55	8.1	8.1	8.1	79	3.0	0	2	315	0.00	30.368 
10:00	8.4	8.4	8.4	78	3.0	0	1	315	0.00	30.368 
10:05	9.0	9.0	9.0	78	3.6	0	2	315	0.00	30.368 
10:10	9.5	9.5	9.5	77	3.8	0	2	315	0.00	30.368 
10:15	9.9	9.9	9.9	76	3.9	0	1	315	0.00	30.368 
10:20	10.4	10.4	10.4	75	4.1	0	4	315	0.00	30.368 
10:25	10.9	10.9	10.9	74	4.3	0	2	315	0.00	30.368 
10:30	11.2	11.2	11.2	73	4.3	0	1	315	0.00	30.370 
10:35	11.6	11.6	11.6	72	4.4	0	2	315	0.00	30.370 
10:40	11.9	11.9	11.9	71	4.3	0	2	315	0.00	30.370 
10:45	12.3	12.3	12.3	70	4.4	0	2	315	0.00	30.375 
10:50	12.6	12.6	12.6	69	4.4	0	2	315	0.00	30.375 
10:55	12.8	12.8	12.8	68	4.3	0	2	315	0.00	30.375 
11:00	12.9	12.9	12.9	68	4.4	0	2	315	0.00	30.374 
11:05	13.1	13.1	13.1	67	4.2	0	2	315	0.00	30.374 
11:10	13.5	13.5	13.5	66	4.3	0	2	315	0.00	30.374 
11:15	13.5	13.5	13.5	66	4.3	1	2	315	0.00	30.374 
11:20	13.8	13.8	13.8	65	4.2	1	3	315	0.00	30.374 
11:25	14.0	14.0	14.0	65	4.4	1	4	270	0.00	30.374 
11:30	14.3	14.3	14.3	64	4.4	1	2	338	0.00	30.376 
11:35	14.6	14.6	14.6	64	4.7	1	2	338	0.00	30.376 
11:40	14.8	14.8	14.8	63	4.5	1	3	292	0.00	30.376 
11:45	15.1	15.1	15.1	63	4.8	0	2	292	0.00	30.376 
11:50	15.2	15.2	15.2	63	4.9	1	3	292	0.00	30.376 
11:55	15.2	15.2	15.2	62	4.6	0	2	292	0.00	30.376 
12:00	15.4	15.4	15.4	63	5.1	0	2	292	0.00	30.375 
12:05	15.7	15.7	15.7	63	5.4	0	2	292	0.00	30.375 
12:10	15.9	15.9	15.9	62	5.2	1	3	292	0.00	30.375 
12:15	15.9	15.9	15.9	62	5.2	0	2	292	0.00	30.375 
12:20	16.1	16.1	16.1	62	5.4	1	3	292	0.00	30.375 
12:25	16.1	16.1	16.1	61	5.1	1	3	292	0.00	30.375 
12:30	16.2	16.2	16.2	62	5.5	0	1	292	0.00	30.370 
12:35	16.2	16.2	16.2	61	5.1	1	3	292	0.00	30.370 
12:40	16.4	16.4	16.4	60	5.0	1	3	292	0.00	30.370 
12:45	16.5	16.5	16.5	60	5.1	1	2	292	0.00	30.362 
12:50	16.9	16.9	16.9	61	5.8	0	2	292	0.00	30.362 
12:55	16.9	16.9	16.9	59	5.1	1	3	292	0.00	30.362 
13:00	16.9	16.9	16.9	58	4.7	1	4	315	0.00	30.359 
13:05	16.9	16.9	16.9	58	4.7	1	3	270	0.00	30.359 
13:10	17.0	17.0	17.0	58	4.8	1	2	270	0.00	30.359 
13:15	17.2	17.2	17.2	58	5.0	1	3	270	0.00	30.361 
13:20	17.2	17.2	17.2	58	5.0	1	3	270	0.00	30.361 
13:25	17.3	17.3	17.3	58	5.1	1	2	270	0.00	30.361 
13:30	17.2	17.2	17.2	57	4.6	2	5	270	0.00	30.357 
13:35	17.2	17.2	17.2	57	4.6	2	4	270	0.00	30.357 
13:40	17.0	17.0	17.0	55	3.7	2	6	315	0.00	30.357 
13:45	16.9	16.9	16.9	56	4.0	1	5	315	0.00	30.352 
13:50	16.7	16.7	16.7	56	3.8	2	6	338	0.00	30.352 
13:55	16.7	16.7	16.7	55	3.4	2	5	270	0.00	30.352 
14:00	16.9	16.9	16.9	57	4.3	1	3	270	0.00	30.349 
14:05	17.2	17.2	17.2	56	4.2	1	5	270	0.00	30.349 
14:10	16.9	16.9	16.9	56	4.0	2	6	338	0.00	30.349 
14:15	16.9	16.9	16.9	56	4.0	1	3	292	0.00	30.346 
14:20	17.2	17.2	17.2	56	4.2	1	3	292	0.00	30.346 
14:25	17.3	17.3	17.3	56	4.3	2	4	292	0.00	30.346 
14:30	17.3	17.3	17.3	56	4.3	1	3	248	0.00	30.347 
14:35	17.3	17.3	17.3	56	4.3	1	4	248	0.00	30.347 
14:40	17.5	17.5	17.5	56	4.5	1	4	248	0.00	30.347 
14:45	17.7	17.7	17.7	55	4.3	1	3	248	0.00	30.351 
14:50	17.7	17.7	17.7	55	4.3	1	3	248	0.00	30.351 
14:55	17.5	17.5	17.5	54	3.7	1	3	248	0.00	30.351 
15:00	17.3	17.3	17.3	54	3.5	2	4	270	0.00	30.352 
15:05	17.2	17.2	17.2	54	3.4	2	5	270	0.00	30.352 
15:10	17.0	17.0	17.0	55	3.7	1	3	292	0.00	30.352 
15:15	17.2	17.2	17.2	56	4.2	1	3	292	0.00	30.356 
15:20	17.5	17.5	17.5	57	4.9	0	2	292	0.00	30.356 
15:25	17.8	17.8	17.8	56	4.8	1	3	292	0.00	30.356 
15:30	17.5	17.5	17.5	56	4.5	1	3	270	0.00	30.363 
15:35	17.3	17.3	17.3	57	4.7	1	3	270	0.00	30.363 
15:40	17.2	17.2	17.2	57	4.6	1	4	270	0.00	30.363 
15:45	17.0	17.0	17.0	58	4.8	1	2	270	0.00	30.364 
15:50	17.0	17.0	17.0	58	4.8	1	2	270	0.00	30.364 
15:55	17.2	17.2	17.2	58	5.0	0	2	270	0.00	30.364 
16:00	16.9	16.9	16.9	57	4.3	1	2	270	0.00	30.365 
16:05	16.7	16.7	16.7	58	4.5	1	3	270	0.00	30.365 
16:10	16.5	16.5	16.5	58	4.3	1	3	270	0.00	30.365 
16:15	16.4	16.4	16.4	58	4.2	1	2	270	0.00	30.364 
16:20	16.2	16.2	16.2	59	4.4	0	1	270	0.00	30.364 
16:25	16.1	16.1	16.1	59	4.3	1	3	270	0.00	30.364 
16:30	16.1	16.1	16.1	59	4.3	1	3	315	0.00	30.368 
16:35	15.9	15.9	15.9	59	4.1	0	2	270	0.00	30.368 
16:40	15.9	15.9	15.9	59	4.1	0	1	270	0.00	30.368 
16:45	15.7	15.7	15.7	60	4.3	0	2	270	0.00	30.369 
16:50	15.9	15.9	15.9	59	4.1	0	2	270	0.00	30.369 
16:55	15.7	15.7	15.7	59	4.0	1	4	270	0.00	30.369 
17:00	15.7	15.7	15.7	59	4.0	1	3	270	0.00	30.372 
17:05	15.7	15.7	15.7	59	4.0	1	2	270	0.00	30.372 
17:10	15.6	15.6	15.6	59	3.9	0	2	270	0.00	30.372 
17:15	15.6	15.6	15.6	59	3.9	0	3	270	0.00	30.380 
17:20	15.4	15.4	15.4	59	3.7	1	2	270	0.00	30.380 
17:25	15.2	15.2	15.2	60	3.8	0	2	270	0.00	30.380 
17:30	15.1	15.1	15.1	60	3.7	1	3	248	0.00	30.386 
17:35	14.9	14.9	14.9	60	3.6	0	2	270	0.00	30.386 
17:40	14.8	14.8	14.8	61	3.8	1	2	270	0.00	30.386 
17:45	14.6	14.6	14.6	61	3.6	0	2	270	0.00	30.387 
17:50	14.3	14.3	14.3	61	3.3	0	0	---	0.00	30.387 
17:55	14.0	14.0	14.0	62	3.4	0	1	270	0.00	30.387 
18:00	13.6	13.6	13.6	62	3.0	0	1	270	0.00	30.389 
18:05	13.3	13.3	13.3	62	2.7	0	1	270	0.00	30.389 
18:10	13.1	13.1	13.1	63	2.9	0	1	270	0.00	30.389 
18:15	12.8	12.8	12.8	63	2.6	0	1	270	0.00	30.397 
18:20	12.6	12.6	12.6	63	2.4	0	2	270	0.00	30.397 
18:25	12.4	12.4	12.4	64	2.6	0	2	270	0.00	30.397 
18:30	12.3	12.3	12.3	64	2.5	0	2	270	0.00	30.404 
18:35	11.9	11.9	11.9	64	2.1	0	1	270	0.00	30.404 
18:40	11.6	11.6	11.6	64	1.8	0	1	270	0.00	30.404 
18:45	11.4	11.4	11.4	65	2.0	0	1	270	0.00	30.416 
18:50	11.1	11.1	11.1	65	1.7	0	0	---	0.00	30.416 
18:55	10.7	10.7	10.7	65	1.3	0	0	---	0.00	30.416 
19:00	10.4	10.4	10.4	66	1.3	0	0	---	0.00	30.422 
19:05	10.0	10.0	10.0	66	0.9	0	1	270	0.00	30.422 
19:10	9.9	9.9	9.9	67	1.2	0	1	270	0.00	30.422 
19:15	9.9	9.9	9.9	68	1.5	0	0	---	0.00	30.427 
19:20	9.5	9.5	9.5	68	1.1	0	0	---	0.00	30.427 
19:25	9.2	9.2	9.2	68	0.8	0	0	---	0.00	30.427 
19:30	8.6	8.6	8.6	68	0.2	0	0	---	0.00	30.427 
19:35	8.3	8.3	8.3	69	0.3	0	0	---	0.00	30.427 
19:40	8.3	8.3	8.3	70	0.6	0	0	---	0.00	30.427 
19:45	8.3	8.3	8.3	70	0.6	0	0	---	0.00	30.431 
19:50	8.3	8.3	8.3	70	0.6	0	0	---	0.00	30.431 
19:55	8.1	8.1	8.1	70	0.4	0	0	---	0.00	30.431 
20:00	8.1	8.1	8.1	71	0.7	0	1	270	0.00	30.431 
20:05	8.1	8.1	8.1	71	0.7	0	0	---	0.00	30.431 
20:10	7.9	7.9	7.9	71	0.5	0	0	---	0.00	30.431 
20:15	7.7	7.7	7.7	71	0.3	0	0	---	0.00	30.429 
20:20	7.6	7.6	7.6	71	0.2	0	1	270	0.00	30.429 
20:25	7.6	7.6	7.6	71	0.2	0	1	270	0.00	30.429 
20:30	7.6	7.6	7.6	71	0.2	0	1	270	0.00	30.436 
20:35	7.4	7.4	7.4	71	0.0	0	1	270	0.00	30.436 
20:40	7.4	7.4	7.4	71	0.0	0	1	270	0.00	30.436 
20:45	7.2	7.2	7.2	71	-0.2	0	1	270	0.00	30.439 
20:50	7.2	7.2	7.2	70	-0.5	0	1	270	0.00	30.439 
20:55	7.0	7.0	7.0	70	-0.7	0	1	270	0.00	30.439 
21:00	7.0	7.0	7.0	69	-1.0	0	1	270	0.00	30.445 
21:05	6.9	6.9	6.9	69	-1.1	0	1	270	0.00	30.445 
21:10	6.7	6.7	6.7	69	-1.3	0	0	---	0.00	30.445 
21:15	6.5	6.5	6.5	69	-1.5	0	1	270	0.00	30.450 
21:20	6.1	6.1	6.1	69	-1.9	0	0	---	0.00	30.450 
21:25	6.1	6.1	6.1	69	-1.9	0	1	270	0.00	30.450 
21:30	6.0	6.0	6.0	69	-1.9	0	1	270	0.00	30.453 
21:35	6.0	6.0	6.0	69	-1.9	0	1	270	0.00	30.453 
21:40	5.8	5.8	5.8	69	-2.1	0	0	---	0.00	30.453 
21:45	5.4	5.4	5.4	69	-2.5	0	0	---	0.00	30.455 
21:50	5.0	5.0	5.0	69	-2.9	0	0	---	0.00	30.455 
21:55	4.7	4.7	4.7	69	-3.2	0	1	270	0.00	30.455 
22:00	4.5	4.5	4.5	69	-3.4	0	0	---	0.00	30.453 
22:05	4.3	4.3	4.3	70	-3.3	0	0	---	0.00	30.453 
22:10	4.1	4.1	4.1	70	-3.5	0	0	---	0.00	30.453 
22:15	3.9	3.9	3.9	70	-3.7	0	0	---	0.00	30.449 
22:20	3.5	3.5	3.5	70	-4.1	0	0	---	0.00	30.449 
22:25	3.2	3.2	3.2	70	-4.3	0	0	---	0.00	30.449 
22:30	3.0	3.0	3.0	71	-4.2	0	0	---	0.00	30.451 
22:35	3.0	3.0	3.0	71	-4.2	0	0	---	0.00	30.451 
22:40	2.8	2.8	2.8	72	-4.1	0	0	---	0.00	30.451 
22:45	2.8	2.8	2.8	72	-4.1	0	0	---	0.00	30.450 
22:50	2.6	2.6	2.6	73	-4.0	0	0	---	0.00	30.450 
22:55	2.6	2.6	2.6	73	-4.0	0	1	270	0.00	30.450 
23:00	2.4	2.4	2.4	73	-4.2	0	0	---	0.00	30.451 
23:05	2.2	2.2	2.2	73	-4.4	0	0	---	0.00	30.451 
23:10	1.8	1.8	1.8	73	-4.8	0	0	---	0.00	30.451 
23:15	1.7	1.7	1.7	73	-4.9	0	0	---	0.00	30.454 
23:20	1.3	1.3	1.3	73	-5.3	0	0	---	0.00	30.454 
23:25	1.1	1.1	1.1	74	-5.2	0	0	---	0.00	30.454 
23:30	1.1	1.1	1.1	74	-5.2	0	0	---	0.00	30.460 
23:35	1.1	1.1	1.1	75	-4.9	0	0	---	0.00	30.460 
23:40	0.9	0.9	0.9	75	-5.1	0	0	---	0.00	30.460 
23:45	0.7	0.7	0.7	75	-5.3	0	0	---	0.00	30.462 
23:50	0.5	0.5	0.5	75	-5.5	0	0	---	0.00	30.462 
23:55	0.3	0.3	0.3	75	-5.7	0	0	---	0.00	30.462 

CoCoRaHS
IN-AL-39
A2 Web Hosting
Creative Commons License
GoDaddy
search engine by freefind advanced

loaded 2018-11-13 23:26:46 • last modified 2010-11-18 10:43:29
Privacy PolicyDisclaimer
• wx.awcolley.com is powered by PmWiki v.2002016 •
• all content (unless otherwise noted) © 2018 A W Colley